createdAt,value
2017-08-18T00:00:06.296Z,99.90
2017-08-18T00:02:33.980Z,99.90
2017-08-18T00:05:01.615Z,99.90
2017-08-18T00:07:29.237Z,99.90
2017-08-18T00:09:56.903Z,99.90
2017-08-18T00:12:24.533Z,99.90
2017-08-18T00:14:52.205Z,99.90
2017-08-18T00:17:20.114Z,99.90
2017-08-18T00:19:47.738Z,99.90
2017-08-18T00:22:15.373Z,99.90
2017-08-18T00:24:43.042Z,99.90
2017-08-18T00:27:10.664Z,99.90
2017-08-18T00:29:38.311Z,99.90
2017-08-18T00:32:06.065Z,99.90
2017-08-18T00:34:33.716Z,99.90
2017-08-18T00:37:01.599Z,99.90
2017-08-18T00:39:29.289Z,99.90
2017-08-18T00:41:56.954Z,99.90
2017-08-18T00:44:24.646Z,99.90
2017-08-18T00:46:52.372Z,99.90
2017-08-18T00:49:20.118Z,99.90
2017-08-18T00:51:47.918Z,99.90
2017-08-18T00:54:16.397Z,99.90
2017-08-18T00:56:44.047Z,99.90
2017-08-18T00:59:11.689Z,99.90
2017-08-18T01:01:39.956Z,99.90
2017-08-18T01:04:07.636Z,99.90
2017-08-18T01:06:35.350Z,99.90
2017-08-18T01:09:03.126Z,99.90
2017-08-18T01:11:30.776Z,99.90
2017-08-18T01:13:58.460Z,99.90
2017-08-18T01:16:26.242Z,99.90
2017-08-18T01:18:53.916Z,99.90
2017-08-18T01:21:22.199Z,99.90
2017-08-18T01:23:49.880Z,99.90
2017-08-18T01:26:17.504Z,99.90
2017-08-18T01:28:45.133Z,99.90
2017-08-18T01:31:12.811Z,99.90
2017-08-18T01:33:40.445Z,99.90
2017-08-18T01:36:08.077Z,99.90
2017-08-18T01:38:35.760Z,99.90
2017-08-18T01:41:03.386Z,99.90
2017-08-18T01:43:31.009Z,99.90
2017-08-18T01:45:58.932Z,99.90
2017-08-18T01:48:26.578Z,99.90
2017-08-18T01:50:54.200Z,99.90
2017-08-18T01:53:22.017Z,99.90
2017-08-18T01:55:49.643Z,99.90
2017-08-18T01:58:17.551Z,99.90
2017-08-18T02:00:45.238Z,99.90
2017-08-18T02:03:12.881Z,99.90
2017-08-18T02:05:40.509Z,99.90
2017-08-18T02:08:08.308Z,99.90
2017-08-18T02:10:35.946Z,99.90
2017-08-18T02:13:03.580Z,99.90
2017-08-18T02:15:31.255Z,99.90
2017-08-18T02:17:58.872Z,99.90
2017-08-18T02:20:26.496Z,99.90
2017-08-18T02:22:54.160Z,99.90
2017-08-18T02:25:21.785Z,99.90
2017-08-18T02:27:49.412Z,99.90
2017-08-18T02:30:17.090Z,99.90
2017-08-18T02:32:44.717Z,99.90
2017-08-18T02:35:12.343Z,99.90
2017-08-18T02:37:40.094Z,99.90
2017-08-18T02:40:08.029Z,99.90
2017-08-18T02:42:35.657Z,99.90
2017-08-18T02:45:03.356Z,99.90
2017-08-18T02:47:30.985Z,99.90
2017-08-18T02:49:58.819Z,99.90
2017-08-18T02:52:27.281Z,99.90
2017-08-18T02:54:54.896Z,99.90
2017-08-18T02:57:22.540Z,99.90
2017-08-18T02:59:50.227Z,99.90
2017-08-18T03:02:18.005Z,99.90
2017-08-18T03:04:45.678Z,99.90
2017-08-18T03:07:13.351Z,99.90
2017-08-18T03:09:40.994Z,99.90
2017-08-18T03:12:08.627Z,99.90
2017-08-18T03:14:36.292Z,99.90
2017-08-18T03:17:03.971Z,99.90
2017-08-18T03:19:31.600Z,99.90
2017-08-18T03:21:59.429Z,99.90
2017-08-18T03:24:27.052Z,99.90
2017-08-18T03:26:54.676Z,99.90
2017-08-18T03:29:22.352Z,99.90
2017-08-18T03:31:49.973Z,99.90
2017-08-18T03:34:17.622Z,99.90
2017-08-18T03:36:45.304Z,99.90
2017-08-18T03:39:12.911Z,99.90
2017-08-18T03:41:40.531Z,99.90
2017-08-18T03:44:08.212Z,99.90
2017-08-18T03:46:35.840Z,99.90
2017-08-18T03:49:03.476Z,99.90
2017-08-18T03:51:31.435Z,99.90
2017-08-18T03:53:59.069Z,99.90
2017-08-18T03:56:26.709Z,99.90
2017-08-18T03:58:54.679Z,99.90
2017-08-18T04:01:22.313Z,99.90
2017-08-18T04:03:49.939Z,99.90
2017-08-18T04:06:17.681Z,99.90
2017-08-18T04:08:45.305Z,99.90
2017-08-18T04:11:12.929Z,99.90
2017-08-18T04:13:40.592Z,99.90
2017-08-18T04:16:08.221Z,99.90
2017-08-18T04:18:35.861Z,99.90
2017-08-18T04:21:03.735Z,99.90
2017-08-18T04:23:31.360Z,99.90
2017-08-18T04:25:59.009Z,99.90
2017-08-18T04:28:26.684Z,99.90
2017-08-18T04:30:54.310Z,99.90
2017-08-18T04:33:21.943Z,99.90
2017-08-18T04:35:50.345Z,99.90
2017-08-18T04:38:17.964Z,99.90
2017-08-18T04:40:45.592Z,99.90
2017-08-18T04:43:13.603Z,99.90
2017-08-18T04:45:41.300Z,99.90
2017-08-18T04:48:09.156Z,99.90
2017-08-18T04:50:37.461Z,99.90
2017-08-18T04:53:05.097Z,99.90
2017-08-18T04:55:32.726Z,99.90
2017-08-18T04:58:00.409Z,99.90
2017-08-18T05:00:28.033Z,99.90
2017-08-18T05:02:55.970Z,99.90
2017-08-18T05:05:23.661Z,99.90
2017-08-18T05:07:51.357Z,99.90
2017-08-18T05:10:19.266Z,99.90
2017-08-18T05:12:46.957Z,99.90
2017-08-18T05:15:14.590Z,99.90
2017-08-18T05:17:42.220Z,99.90
2017-08-18T05:20:09.894Z,99.90
2017-08-18T05:22:37.870Z,99.90
2017-08-18T05:25:05.493Z,99.90
2017-08-18T05:27:33.179Z,99.90
2017-08-18T05:30:00.808Z,99.90
2017-08-18T05:32:28.625Z,99.90
2017-08-18T05:34:56.294Z,99.90
2017-08-18T05:37:23.948Z,99.90
2017-08-18T05:39:51.585Z,99.90
2017-08-18T05:42:19.275Z,99.90
2017-08-18T05:44:47.104Z,99.90
2017-08-18T05:47:14.734Z,99.70
2017-08-18T05:49:42.657Z,98.60
2017-08-18T05:52:10.355Z,97.80
2017-08-18T05:54:37.976Z,97.20
2017-08-18T05:57:05.889Z,96.70
2017-08-18T05:59:33.513Z,96.20
2017-08-18T06:02:01.136Z,95.10
2017-08-18T06:04:28.894Z,94.60
2017-08-18T06:06:56.529Z,93.60
2017-08-18T06:09:24.167Z,93.40
2017-08-18T06:11:52.141Z,92.00
2017-08-18T06:14:19.764Z,92.00
2017-08-18T06:16:47.482Z,91.70
2017-08-18T06:19:15.476Z,90.40
2017-08-18T06:21:43.231Z,88.20
2017-08-18T06:24:10.857Z,89.40
2017-08-18T06:26:38.535Z,87.80
2017-08-18T06:29:06.185Z,89.60
2017-08-18T06:31:33.825Z,86.90
2017-08-18T06:34:01.756Z,83.40
2017-08-18T06:36:29.401Z,84.20
2017-08-18T06:38:57.281Z,83.00
2017-08-18T06:41:24.995Z,82.40
2017-08-18T06:43:52.612Z,79.60
2017-08-18T06:46:20.232Z,80.90
2017-08-18T06:48:48.036Z,82.10
2017-08-18T06:51:15.657Z,81.40
2017-08-18T06:53:43.280Z,78.00
2017-08-18T06:56:10.958Z,78.90
2017-08-18T06:58:38.591Z,78.20
2017-08-18T07:01:06.225Z,75.00
2017-08-18T07:03:33.902Z,74.20
2017-08-18T07:06:01.541Z,73.60
2017-08-18T07:08:29.165Z,71.90
2017-08-18T07:10:56.833Z,71.50
2017-08-18T07:13:24.773Z,74.40
2017-08-18T07:15:52.628Z,73.40
2017-08-18T07:18:20.296Z,73.60
2017-08-18T07:20:48.102Z,73.20
2017-08-18T07:23:16.512Z,74.50
2017-08-18T07:25:45.226Z,73.60
2017-08-18T07:28:12.838Z,73.40
2017-08-18T07:30:40.458Z,72.20
2017-08-18T07:33:08.118Z,74.20
2017-08-18T07:35:35.771Z,75.00
2017-08-18T07:38:03.392Z,72.40
2017-08-18T07:40:31.060Z,70.80
2017-08-18T07:42:58.683Z,70.00
2017-08-18T07:45:26.301Z,69.40
2017-08-18T07:47:53.988Z,68.50
2017-08-18T07:50:21.630Z,68.00
2017-08-18T07:52:49.260Z,64.20
2017-08-18T07:55:17.092Z,63.40
2017-08-18T07:57:44.704Z,64.70
2017-08-18T08:00:12.621Z,65.10
2017-08-18T08:02:41.399Z,63.80
2017-08-18T08:05:09.008Z,63.30
2017-08-18T08:07:36.677Z,63.80
2017-08-18T08:10:04.389Z,65.00
2017-08-18T08:12:32.029Z,63.40
2017-08-18T08:14:59.651Z,60.50
2017-08-18T08:17:27.646Z,62.40
2017-08-18T08:19:55.281Z,60.80
2017-08-18T08:22:22.912Z,62.90
2017-08-18T08:24:50.611Z,59.80
2017-08-18T08:27:18.245Z,60.90
2017-08-18T08:29:45.864Z,63.30
2017-08-18T08:32:13.539Z,63.30
2017-08-18T08:34:41.342Z,60.50
2017-08-18T08:37:09.224Z,57.80
2017-08-18T08:39:36.891Z,56.70
2017-08-18T08:42:04.514Z,57.80
2017-08-18T08:44:32.184Z,57.20
2017-08-18T08:46:59.848Z,55.20
2017-08-18T08:49:27.456Z,54.90
2017-08-18T08:51:55.089Z,55.20
2017-08-18T08:54:22.756Z,56.60
2017-08-18T08:56:50.612Z,54.20
2017-08-18T08:59:18.237Z,54.20
2017-08-18T09:01:45.922Z,55.00
2017-08-18T09:04:13.554Z,57.10
2017-08-18T09:06:41.168Z,56.90
2017-08-18T09:09:08.841Z,59.30
2017-08-18T09:11:36.461Z,55.10
2017-08-18T09:14:04.080Z,55.10
2017-08-18T09:16:31.733Z,55.30
2017-08-18T09:18:59.348Z,55.60
2017-08-18T09:21:27.235Z,58.80
2017-08-18T09:23:54.909Z,55.50
2017-08-18T09:26:22.584Z,57.50
2017-08-18T09:28:50.209Z,54.00
2017-08-18T09:31:17.885Z,54.60
2017-08-18T09:33:45.524Z,55.10
2017-08-18T09:36:13.417Z,56.00
2017-08-18T09:38:41.487Z,54.70
2017-08-18T09:41:09.094Z,53.40
2017-08-18T09:43:37.064Z,53.30
2017-08-18T09:46:04.741Z,53.10
2017-08-18T09:48:44.217Z,52.00
2017-08-18T09:51:23.661Z,52.30
2017-08-18T09:54:03.073Z,51.70
2017-08-18T09:56:42.369Z,51.90
2017-08-18T09:59:11.004Z,51.30
2017-08-18T10:01:38.628Z,52.20
2017-08-18T10:04:07.072Z,53.70
2017-08-18T10:06:34.684Z,53.20
2017-08-18T10:09:02.509Z,53.20
2017-08-18T10:11:30.193Z,53.30
2017-08-18T10:13:58.129Z,51.80
2017-08-18T10:16:25.752Z,49.90
2017-08-18T10:18:53.653Z,51.00
2017-08-18T10:21:21.422Z,51.90
2017-08-18T10:23:49.045Z,51.90
2017-08-18T10:26:16.698Z,52.40
2017-08-18T10:28:44.317Z,52.20
2017-08-18T10:31:12.088Z,52.80
2017-08-18T10:33:40.399Z,52.30
2017-08-18T10:36:08.022Z,51.80
2017-08-18T10:38:35.650Z,52.70
2017-08-18T10:41:03.327Z,54.80
2017-08-18T10:43:30.982Z,51.90
2017-08-18T10:45:58.611Z,51.80
2017-08-18T10:48:26.290Z,53.70
2017-08-18T10:50:53.915Z,53.90
2017-08-18T10:53:21.762Z,54.90
2017-08-18T10:55:49.445Z,53.60
2017-08-18T10:58:17.068Z,53.80
2017-08-18T11:00:44.692Z,53.90
2017-08-18T11:03:12.356Z,53.10
2017-08-18T11:05:40.369Z,54.70
2017-08-18T11:08:08.000Z,54.30
2017-08-18T11:10:35.793Z,55.00
2017-08-18T11:13:03.421Z,54.60
2017-08-18T11:15:31.039Z,55.90
2017-08-18T11:17:58.704Z,54.30
2017-08-18T11:20:26.331Z,55.90
2017-08-18T11:22:54.245Z,54.50
2017-08-18T11:25:21.986Z,56.90
2017-08-18T11:27:49.606Z,57.10
2017-08-18T11:30:17.225Z,53.80
2017-08-18T11:32:45.158Z,53.50
2017-08-18T11:35:12.787Z,52.90
2017-08-18T11:37:40.530Z,52.10
2017-08-18T11:40:08.787Z,52.40
2017-08-18T11:42:36.412Z,51.30
2017-08-18T11:45:04.039Z,52.60
2017-08-18T11:47:31.721Z,54.10
2017-08-18T11:49:59.362Z,53.60
2017-08-18T11:52:26.993Z,51.70
2017-08-18T11:54:54.910Z,50.30
2017-08-18T11:57:23.334Z,51.20
2017-08-18T11:59:50.951Z,51.20
2017-08-18T12:02:18.620Z,51.10
2017-08-18T12:04:46.584Z,51.60
2017-08-18T12:07:14.249Z,49.60
2017-08-18T12:09:41.916Z,50.60
2017-08-18T12:12:09.554Z,49.80
2017-08-18T12:14:37.180Z,51.70
2017-08-18T12:17:04.852Z,51.40
2017-08-18T12:19:32.482Z,51.20
2017-08-18T12:22:00.116Z,50.90
2017-08-18T12:24:27.871Z,50.80
2017-08-18T12:26:55.494Z,52.10
2017-08-18T12:29:23.320Z,51.70
2017-08-18T12:31:51.086Z,50.30
2017-08-18T12:34:18.905Z,51.30
2017-08-18T12:36:46.545Z,50.20
2017-08-18T12:39:14.239Z,51.30
2017-08-18T12:41:41.889Z,51.70
2017-08-18T12:44:09.521Z,51.70
2017-08-18T12:46:37.338Z,51.30
2017-08-18T12:49:05.112Z,50.00
2017-08-18T12:51:32.739Z,50.40
2017-08-18T12:54:01.257Z,51.10
2017-08-18T12:56:28.889Z,52.30
2017-08-18T12:58:56.505Z,51.10
2017-08-18T13:01:24.522Z,50.60
2017-08-18T13:03:52.149Z,51.70
2017-08-18T13:06:19.780Z,50.00
2017-08-18T13:08:47.445Z,51.50
2017-08-18T13:11:15.061Z,50.50
2017-08-18T13:13:42.685Z,48.80
2017-08-18T13:16:10.636Z,48.70
2017-08-18T13:18:38.265Z,50.30
2017-08-18T13:21:06.177Z,49.10
2017-08-18T13:23:33.843Z,50.00
2017-08-18T13:26:01.597Z,49.50
2017-08-18T13:28:29.361Z,50.10
2017-08-18T13:30:57.028Z,50.20
2017-08-18T13:33:24.653Z,49.80
2017-08-18T13:35:52.271Z,51.20
2017-08-18T13:38:20.190Z,49.80
2017-08-18T13:40:47.829Z,50.10
2017-08-18T13:43:15.449Z,50.40
2017-08-18T13:45:43.120Z,49.30
2017-08-18T13:48:10.756Z,50.50
2017-08-18T13:50:38.378Z,49.00
2017-08-18T13:53:06.064Z,49.60
2017-08-18T13:55:33.684Z,50.00
2017-08-18T13:58:01.304Z,49.80
2017-08-18T14:00:28.995Z,49.10
2017-08-18T14:02:56.624Z,51.20
2017-08-18T14:05:24.240Z,51.80
2017-08-18T14:07:51.918Z,50.30
2017-08-18T14:10:19.535Z,49.80
2017-08-18T14:12:47.681Z,48.80
2017-08-18T14:15:15.356Z,49.40
2017-08-18T14:17:42.985Z,48.40
2017-08-18T14:20:10.609Z,48.20
2017-08-18T14:22:38.280Z,47.80
2017-08-18T14:25:11.396Z,47.40
2017-08-18T14:27:45.565Z,47.10
2017-08-18T14:30:13.212Z,48.80
2017-08-18T14:32:40.826Z,48.50
2017-08-18T14:35:08.826Z,48.40
2017-08-18T14:37:36.449Z,48.70
2017-08-18T14:40:04.089Z,48.40
2017-08-18T14:42:32.156Z,48.50
2017-08-18T14:45:00.005Z,49.30
2017-08-18T14:47:27.670Z,49.30
2017-08-18T14:49:55.349Z,49.70
2017-08-18T14:52:22.999Z,50.10
2017-08-18T14:54:50.640Z,50.50
2017-08-18T14:57:18.437Z,50.40
2017-08-18T14:59:46.249Z,50.00
2017-08-18T15:02:13.878Z,50.70
2017-08-18T15:04:41.758Z,50.80
2017-08-18T15:07:09.578Z,50.30
2017-08-18T15:09:37.192Z,50.50
2017-08-18T15:12:05.059Z,50.50
2017-08-18T15:14:33.503Z,51.60
2017-08-18T15:17:01.120Z,50.90
2017-08-18T15:19:28.817Z,51.00
2017-08-18T15:21:56.461Z,52.00
2017-08-18T15:24:24.260Z,51.00
2017-08-18T15:26:51.952Z,50.50
2017-08-18T15:29:20.137Z,50.80
2017-08-18T15:31:47.753Z,51.00
2017-08-18T15:34:15.626Z,51.30
2017-08-18T15:36:43.236Z,51.00
2017-08-18T15:39:10.858Z,51.30
2017-08-18T15:41:38.627Z,51.20
2017-08-18T15:44:06.278Z,51.10
2017-08-18T15:46:33.908Z,49.30
2017-08-18T15:49:01.583Z,50.30
2017-08-18T15:51:29.221Z,50.80
2017-08-18T15:53:56.848Z,50.70
2017-08-18T15:56:24.542Z,50.80
2017-08-18T15:58:52.335Z,51.40
2017-08-18T16:01:19.965Z,51.00
2017-08-18T16:03:47.632Z,51.50
2017-08-18T16:06:15.570Z,51.60
2017-08-18T16:08:43.422Z,52.50
2017-08-18T16:11:11.085Z,52.80
2017-08-18T16:13:38.716Z,53.30
2017-08-18T16:16:06.630Z,54.30
2017-08-18T16:18:34.493Z,53.80
2017-08-18T16:21:02.116Z,53.20
2017-08-18T16:23:29.737Z,54.40
2017-08-18T16:25:57.400Z,52.30
2017-08-18T16:28:25.031Z,52.10
2017-08-18T16:30:52.696Z,52.10
2017-08-18T16:33:20.404Z,52.40
2017-08-18T16:35:48.016Z,53.20
2017-08-18T16:38:16.217Z,53.30
2017-08-18T16:40:43.866Z,54.50
2017-08-18T16:43:11.488Z,53.60
2017-08-18T16:45:39.098Z,54.00
2017-08-18T16:48:06.784Z,54.30
2017-08-18T16:50:34.411Z,54.30
2017-08-18T16:53:02.029Z,53.60
2017-08-18T16:55:29.736Z,54.30
2017-08-18T16:57:57.416Z,53.30
2017-08-18T17:00:25.053Z,53.90
2017-08-18T17:02:52.864Z,54.10
2017-08-18T17:05:20.485Z,54.90
2017-08-18T17:07:48.107Z,54.80
2017-08-18T17:10:15.772Z,55.30
2017-08-18T17:12:43.401Z,55.70
2017-08-18T17:15:11.022Z,55.70
2017-08-18T17:17:38.699Z,55.70
2017-08-18T17:20:06.472Z,55.40
2017-08-18T17:22:34.143Z,56.20
2017-08-18T17:25:01.813Z,56.60
2017-08-18T17:27:29.426Z,55.70
2017-08-18T17:29:57.225Z,55.80
2017-08-18T17:32:25.757Z,55.90
2017-08-18T17:34:53.378Z,56.40
2017-08-18T17:37:21.005Z,56.30
2017-08-18T17:39:48.688Z,56.20
2017-08-18T17:42:16.304Z,56.70
2017-08-18T17:44:43.929Z,57.40
2017-08-18T17:47:11.596Z,58.00
2017-08-18T17:49:39.212Z,59.20
2017-08-18T17:52:06.834Z,59.70
2017-08-18T17:54:34.513Z,59.70
2017-08-18T17:57:02.138Z,60.90
2017-08-18T17:59:30.390Z,61.10
2017-08-18T18:01:58.073Z,60.60
2017-08-18T18:04:25.847Z,60.90
2017-08-18T18:06:53.462Z,61.40
2017-08-18T18:09:21.133Z,62.10
2017-08-18T18:11:48.754Z,63.50
2017-08-18T18:14:16.408Z,64.50
2017-08-18T18:16:44.457Z,64.60
2017-08-18T18:19:12.089Z,65.80
2017-08-18T18:21:39.722Z,66.10
2017-08-18T18:24:07.403Z,65.70
2017-08-18T18:26:35.035Z,66.50
2017-08-18T18:29:02.695Z,67.00
2017-08-18T18:31:30.389Z,66.80
2017-08-18T18:33:58.119Z,67.30
2017-08-18T18:36:25.970Z,67.50
2017-08-18T18:38:53.648Z,68.60
2017-08-18T18:41:22.033Z,68.90
2017-08-18T18:43:49.689Z,68.30
2017-08-18T18:46:17.372Z,68.70
2017-08-18T18:48:44.990Z,67.80
2017-08-18T18:51:12.612Z,67.00
2017-08-18T18:53:40.272Z,65.70
2017-08-18T18:56:07.889Z,62.60
2017-08-18T18:58:35.509Z,63.90
2017-08-18T19:01:03.180Z,65.60
2017-08-18T19:03:30.792Z,66.00
2017-08-18T19:05:58.416Z,66.90
2017-08-18T19:08:26.100Z,68.70
2017-08-18T19:10:53.986Z,71.30
2017-08-18T19:13:21.617Z,73.70
2017-08-18T19:15:49.584Z,76.40
2017-08-18T19:18:17.197Z,87.10
2017-08-18T19:20:46.016Z,92.20
2017-08-18T19:23:13.796Z,94.80
2017-08-18T19:25:41.439Z,98.40
2017-08-18T19:28:09.064Z,99.90
2017-08-18T19:30:36.824Z,99.90
2017-08-18T19:33:04.440Z,99.90
2017-08-18T19:35:32.061Z,99.90
2017-08-18T19:38:00.078Z,99.90
2017-08-18T19:40:27.700Z,99.90
2017-08-18T19:42:55.330Z,99.90
2017-08-18T19:45:23.096Z,99.90
2017-08-18T19:47:50.768Z,99.90
2017-08-18T19:50:18.388Z,99.90
2017-08-18T19:52:46.061Z,99.90
2017-08-18T19:55:13.685Z,99.90
2017-08-18T19:57:41.596Z,99.90
2017-08-18T20:00:10.085Z,99.90
2017-08-18T20:02:38.285Z,99.90
2017-08-18T20:05:06.088Z,99.90
2017-08-18T20:07:34.129Z,99.90
2017-08-18T20:10:01.879Z,99.90
2017-08-18T20:12:29.917Z,99.90
2017-08-18T20:14:58.036Z,99.90
2017-08-18T20:17:26.113Z,99.90
2017-08-18T20:19:54.489Z,99.90
2017-08-18T20:22:22.559Z,99.90
2017-08-18T20:24:50.366Z,99.90
2017-08-18T20:27:18.412Z,99.90
2017-08-18T20:29:47.085Z,99.90
2017-08-18T20:32:14.745Z,99.90
2017-08-18T20:34:42.616Z,99.90
2017-08-18T20:37:10.372Z,99.90
2017-08-18T20:39:38.297Z,99.90
2017-08-18T20:42:06.890Z,99.90
2017-08-18T20:44:35.168Z,99.90
2017-08-18T20:47:03.300Z,99.90
2017-08-18T20:49:30.994Z,99.90
2017-08-18T20:51:58.729Z,99.90
2017-08-18T20:54:26.520Z,99.90
2017-08-18T20:56:54.656Z,99.90
2017-08-18T20:59:22.448Z,99.90
2017-08-18T21:01:50.556Z,99.90
2017-08-18T21:04:18.569Z,99.90
2017-08-18T21:06:46.467Z,99.90
2017-08-18T21:09:14.527Z,99.90
2017-08-18T21:11:42.687Z,99.90
2017-08-18T21:14:10.855Z,99.90
2017-08-18T21:16:39.034Z,99.90
2017-08-18T21:19:06.833Z,99.90
2017-08-18T21:21:35.472Z,99.90
2017-08-18T21:24:03.549Z,99.90
2017-08-18T21:26:31.185Z,99.90
2017-08-18T21:28:59.292Z,99.90
2017-08-18T21:31:26.971Z,99.90
2017-08-18T21:33:54.844Z,99.90
2017-08-18T21:36:22.827Z,99.90
2017-08-18T21:38:50.449Z,99.90
2017-08-18T21:41:18.223Z,99.90
2017-08-18T21:43:45.975Z,99.90
2017-08-18T21:46:13.602Z,99.90
2017-08-18T21:48:41.234Z,99.90
2017-08-18T21:51:09.155Z,99.90
2017-08-18T21:53:37.799Z,99.90
2017-08-18T21:56:06.930Z,99.90
2017-08-18T21:58:35.897Z,99.90
2017-08-18T22:01:05.124Z,99.90
2017-08-18T22:03:33.669Z,99.90
2017-08-18T22:06:01.346Z,99.90
2017-08-18T22:08:29.160Z,99.90
2017-08-18T22:10:56.781Z,99.90
2017-08-18T22:13:24.443Z,99.90
2017-08-18T22:15:52.149Z,99.90
2017-08-18T22:18:19.824Z,99.90
2017-08-18T22:20:47.505Z,99.90
2017-08-18T22:23:15.128Z,99.90
2017-08-18T22:25:42.811Z,99.90
2017-08-18T22:28:10.478Z,99.90
2017-08-18T22:30:38.922Z,99.90
2017-08-18T22:33:06.559Z,99.90
2017-08-18T22:35:34.241Z,99.90
2017-08-18T22:38:01.861Z,99.90
2017-08-18T22:40:29.478Z,99.90
2017-08-18T22:42:57.132Z,99.90
2017-08-18T22:45:24.813Z,99.90
2017-08-18T22:47:52.429Z,99.90
2017-08-18T22:50:20.113Z,99.90
2017-08-18T22:52:47.725Z,99.90
2017-08-18T22:55:15.357Z,99.90
2017-08-18T22:57:43.050Z,99.90
2017-08-18T23:00:10.684Z,99.90
2017-08-18T23:02:38.313Z,99.90
2017-08-18T23:05:05.995Z,99.90
2017-08-18T23:07:33.620Z,99.90
2017-08-18T23:10:01.236Z,99.90
2017-08-18T23:12:29.002Z,99.90
2017-08-18T23:14:56.618Z,99.90
2017-08-18T23:17:24.937Z,99.90
2017-08-18T23:19:52.822Z,99.90
2017-08-18T23:22:20.436Z,99.90
2017-08-18T23:24:48.045Z,99.90
2017-08-18T23:27:15.799Z,99.90
2017-08-18T23:29:43.421Z,99.90
2017-08-18T23:32:11.035Z,99.90
2017-08-18T23:34:38.732Z,99.90
2017-08-18T23:37:06.358Z,99.90
2017-08-18T23:39:33.976Z,99.90
2017-08-18T23:42:01.640Z,99.90
2017-08-18T23:44:29.255Z,99.90
2017-08-18T23:46:56.869Z,99.90
2017-08-18T23:49:24.570Z,99.90
2017-08-18T23:51:52.181Z,99.90
2017-08-18T23:54:19.825Z,99.90
2017-08-18T23:56:47.480Z,99.90
2017-08-18T23:59:15.226Z,99.90
